Sid Moller — WDF9421 — position and weather

sailwx.info

Track history (hours):
 
Tides and Currents Weather Stations Pressure Air Temp Water Temp Dewpoint Dewpoint Depression Visibility Wind Speed Wind Dir Waves Ship Positions

Sid Moller

Owner: Genesis Marine, LLC, Houston, TX. More information available from US FCC via Universal Licensing System and Coast Guard Vessel Documentation Center.

Last reported at 2016-Jul-25 23:18 UTC. Time now 2016-Jul-29 17:57 UTC.
Position N 29°57' W 090°14'.

; draft 3.3 m.

MMSI: 367504980.

Date/timePositionNaut miles runAvg speedWind from/ knotsBaromVisibWave heightAir tempDewpointWater temp
2016-Jul-25 23:18N 29°57' W 090°14'3 4.4
2016-Jul-25 22:34N 29°56' W 090°10'4 4.4
2016-Jul-25 21:34N 29°55' W 090°05'1 0.5
2016-Jul-25 20:32N 29°55' W 090°05'0 0.0
2016-Jul-25 19:32N 29°55' W 090°05'1 0.5
2016-Jul-25 18:33N 29°55' W 090°04'4 4.2
2016-Jul-25 17:33N 29°56' W 089°60'2 1.7
2016-Jul-25 16:33N 29°55' W 089°59'2 0.9
2016-Jul-25 14:15N 29°53' W 090°00'2 2.1
2016-Jul-25 13:10N 29°51' W 090°01'1 2.0
2016-Jul-25 12:33N 29°50' W 090°02'1 0.8
2016-Jul-25 11:33N 29°50' W 090°03'4 3.3
2016-Jul-25 10:25N 29°46' W 090°04'3 3.9
2016-Jul-25 09:31N 29°45' W 090°08'23 4.6
2016-Jul-25 04:29N 29°34' W 090°31'5 5.2
2016-Jul-25 03:33N 29°35' W 090°37'5 4.7
2016-Jul-25 02:33N 29°37' W 090°42'3 3.4
2016-Jul-25 01:33N 29°34' W 090°44'1 0.6
2016-Jul-25 00:33N 29°34' W 090°45'5 4.6
2016-Jul-24 23:33N 29°32' W 090°49'8 7.7
2016-Jul-24 22:33N 29°35' W 090°58'  
2016-Jul-21 16:06N 29°34' W 090°55'3 5.4
2016-Jul-21 15:31N 29°32' W 090°52'5 5.3
2016-Jul-21 14:33N 29°32' W 090°46'3 3.4
2016-Jul-21 13:32N 29°34' W 090°43'0 0.0
2016-Jul-21 12:32N 29°34' W 090°43'3 2.8
2016-Jul-21 11:34N 29°37' W 090°42'4 4.5
2016-Jul-21 10:34N 29°35' W 090°37'4 3.9
2016-Jul-21 09:33N 29°34' W 090°33'4 4.4
2016-Jul-21 08:33N 29°33' W 090°28'18 2.9
2016-Jul-21 02:20N 29°43' W 090°10'4 4.6
2016-Jul-21 01:32N 29°46' W 090°07'3 3.5
2016-Jul-21 00:33N 29°48' W 090°04'3 2.3
2016-Jul-20 23:27N 29°50' W 090°03'3 3.7
2016-Jul-20 22:33N 29°53' W 090°00'3 2.3
2016-Jul-20 21:08N 29°55' W 089°58'2 1.0
2016-Jul-20 19:33N 29°56' W 089°59'5 4.7
2016-Jul-20 18:33N 29°55' W 090°05'5 5.3
2016-Jul-20 17:32N 29°56' W 090°11'  
Track history (hours):
 
Tides and Currents Weather Stations Pressure Air Temp Water Temp Dewpoint Dewpoint Depression Visibility Wind Speed Wind Dir Waves Ship Positions

Sid Moller

Owner: Genesis Marine, LLC, Houston, TX. More information available from US FCC via Universal Licensing System and Coast Guard Vessel Documentation Center.

Last reported at 2016-Jul-25 23:18 UTC. Time now 2016-Jul-29 17:57 UTC.
Position N 29°57' W 090°14'.

; draft 3.3 m.

MMSI: 367504980.

Date/timePositionNaut miles runAvg speedWind from/ knotsBaromVisibWave heightAir tempDewpointWater temp
2016-Jul-25 23:18N 29°57' W 090°14'3 4.4
2016-Jul-25 22:34N 29°56' W 090°10'4 4.4
2016-Jul-25 21:34N 29°55' W 090°05'1 0.5
2016-Jul-25 20:32N 29°55' W 090°05'0 0.0
2016-Jul-25 19:32N 29°55' W 090°05'1 0.5
2016-Jul-25 18:33N 29°55' W 090°04'4 4.2
2016-Jul-25 17:33N 29°56' W 089°60'2 1.7
2016-Jul-25 16:33N 29°55' W 089°59'2 0.9
2016-Jul-25 14:15N 29°53' W 090°00'2 2.1
2016-Jul-25 13:10N 29°51' W 090°01'1 2.0
2016-Jul-25 12:33N 29°50' W 090°02'1 0.8
2016-Jul-25 11:33N 29°50' W 090°03'4 3.3
2016-Jul-25 10:25N 29°46' W 090°04'3 3.9
2016-Jul-25 09:31N 29°45' W 090°08'23 4.6
2016-Jul-25 04:29N 29°34' W 090°31'5 5.2
2016-Jul-25 03:33N 29°35' W 090°37'5 4.7
2016-Jul-25 02:33N 29°37' W 090°42'3 3.4
2016-Jul-25 01:33N 29°34' W 090°44'1 0.6
2016-Jul-25 00:33N 29°34' W 090°45'5 4.6
2016-Jul-24 23:33N 29°32' W 090°49'8 7.7
2016-Jul-24 22:33N 29°35' W 090°58'  
2016-Jul-21 16:06N 29°34' W 090°55'3 5.4
2016-Jul-21 15:31N 29°32' W 090°52'5 5.3
2016-Jul-21 14:33N 29°32' W 090°46'3 3.4
2016-Jul-21 13:32N 29°34' W 090°43'0 0.0
2016-Jul-21 12:32N 29°34' W 090°43'3 2.8
2016-Jul-21 11:34N 29°37' W 090°42'4 4.5
2016-Jul-21 10:34N 29°35' W 090°37'4 3.9
2016-Jul-21 09:33N 29°34' W 090°33'4 4.4
2016-Jul-21 08:33N 29°33' W 090°28'18 2.9
2016-Jul-21 02:20N 29°43' W 090°10'4 4.6
2016-Jul-21 01:32N 29°46' W 090°07'3 3.5
2016-Jul-21 00:33N 29°48' W 090°04'3 2.3
2016-Jul-20 23:27N 29°50' W 090°03'3 3.7
2016-Jul-20 22:33N 29°53' W 090°00'3 2.3
2016-Jul-20 21:08N 29°55' W 089°58'2 1.0
2016-Jul-20 19:33N 29°56' W 089°59'5 4.7
2016-Jul-20 18:33N 29°55' W 090°05'5 5.3
2016-Jul-20 17:32N 29°56' W 090°11'  

Dump ship's entire track history